Time;durP1;ratioP1;P1;durP2;ratioP2;P2;SDS_P1;SDS_P2;PMS_P1;PMS_P2;Temp;Humidity;BMP_temperature;BMP_pressure;BME280_temperature;BME280_humidity;BME280_pressure;Samples;Min_cycle;Max_cycle;Signal;HPM_P1;HPM_P2
2023/05/21 00:01:51;;;;;;;0.10;0.10;;;14.90;76.40;;;;;;5009714;28;20050;-63
2023/05/21 00:04:17;;;;;;;0.10;0.10;;;14.90;76.40;;;;;;5009391;28;20091;-63
2023/05/21 00:06:42;;;;;;;0.00;0.00;;;14.90;76.30;;;;;;5009416;28;20461;-63
2023/05/21 00:09:08;;;;;;;0.00;0.00;;;14.90;76.40;;;;;;5009358;28;20089;-64
2023/05/21 00:11:33;;;;;;;0.00;0.00;;;14.90;76.50;;;;;;5009473;28;20064;-63
2023/05/21 00:13:59;;;;;;;0.10;0.10;;;14.90;76.30;;;;;;5009669;28;20075;-63
2023/05/21 00:16:25;;;;;;;0.00;0.00;;;14.90;76.50;;;;;;5008857;28;20077;-63
2023/05/21 00:18:53;;;;;;;0.00;0.00;;;15.00;76.80;;;;;;5009509;28;20049;-63
2023/05/21 00:21:24;;;;;;;0.00;0.00;;;14.90;76.90;;;;;;5008162;28;20049;-63
2023/05/21 00:23:53;;;;;;;2.65;0.45;;;14.90;76.80;;;;;;5009559;28;20056;-63
2023/05/21 00:26:20;;;;;;;0.00;0.00;;;14.90;76.60;;;;;;5009175;28;20038;-63
2023/05/21 00:28:46;;;;;;;0.00;0.00;;;14.90;76.70;;;;;;5009263;28;20053;-63
2023/05/21 00:31:11;;;;;;;0.00;0.00;;;14.90;76.50;;;;;;5009513;28;20042;-63
2023/05/21 00:33:37;;;;;;;0.00;0.00;;;14.90;76.50;;;;;;5008197;28;20096;-63
2023/05/21 00:36:04;;;;;;;0.00;0.00;;;14.90;76.50;;;;;;5009301;28;20050;-63
2023/05/21 00:38:31;;;;;;;0.00;0.00;;;14.90;76.60;;;;;;5009401;28;20042;-63
2023/05/21 00:41:02;;;;;;;0.52;0.52;;;14.90;76.50;;;;;;5009317;28;20046;-63
2023/05/21 00:43:27;;;;;;;0.52;0.52;;;14.90;76.30;;;;;;5008988;28;20041;-63
2023/05/21 00:45:55;;;;;;;0.00;0.00;;;14.80;76.30;;;;;;5011148;28;20084;-63
2023/05/21 00:48:22;;;;;;;0.03;0.03;;;14.80;76.50;;;;;;5011341;28;20487;-63
2023/05/21 00:50:48;;;;;;;0.00;0.00;;;14.80;76.40;;;;;;5012945;28;20046;-63
2023/05/21 00:53:17;;;;;;;0.00;0.00;;;14.80;76.30;;;;;;5012820;28;20037;-64
2023/05/21 00:55:43;;;;;;;0.00;0.00;;;14.80;76.30;;;;;;5012470;28;20084;-63
2023/05/21 00:58:09;;;;;;;0.00;0.00;;;14.70;76.30;;;;;;4994766;28;20046;-63
2023/05/21 01:00:36;;;;;;;0.00;0.00;;;14.70;76.30;;;;;;5012550;28;20042;-63
2023/05/21 01:03:03;;;;;;;0.00;0.00;;;14.70;76.30;;;;;;5012749;28;20050;-62
2023/05/21 01:05:28;;;;;;;0.00;0.00;;;14.70;76.30;;;;;;5012228;28;20053;-62
2023/05/21 01:07:56;;;;;;;0.00;0.00;;;14.70;76.40;;;;;;5011207;28;20045;-63
2023/05/21 01:10:23;;;;;;;0.00;0.00;;;14.70;76.30;;;;;;5012267;28;20045;-63
2023/05/21 01:12:49;;;;;;;0.20;0.20;;;14.70;76.50;;;;;;5012234;28;20446;-63
2023/05/21 01:15:15;;;;;;;0.20;0.20;;;14.70;76.40;;;;;;5012232;28;20052;-63
2023/05/21 01:17:41;;;;;;;0.05;0.05;;;14.60;76.70;;;;;;5012214;28;20042;-63
2023/05/21 01:20:10;;;;;;;0.10;0.10;;;14.60;76.70;;;;;;5011924;28;20140;-63
2023/05/21 01:22:40;;;;;;;0.00;0.00;;;14.60;76.80;;;;;;5011905;28;20038;-63
2023/05/21 01:25:06;;;;;;;0.00;0.00;;;14.60;76.80;;;;;;5012025;28;20068;-63
2023/05/21 01:27:32;;;;;;;0.10;0.10;;;14.60;76.90;;;;;;5012325;28;20471;-64
2023/05/21 01:29:58;;;;;;;0.00;0.00;;;14.50;77.00;;;;;;5011875;28;20045;-63
2023/05/21 01:32:33;;;;;;;0.00;0.00;;;14.50;77.00;;;;;;5011988;28;20042;-63
2023/05/21 01:35:04;;;;;;;0.00;0.00;;;14.50;77.00;;;;;;5011575;28;20838;-63
2023/05/21 01:37:54;;;;;;;0.00;0.00;;;14.50;77.20;;;;;;5011763;28;20045;-63
2023/05/21 01:40:34;;;;;;;0.20;0.20;;;14.50;77.30;;;;;;5011923;28;20053;-64
2023/05/21 01:43:01;;;;;;;0.00;0.00;;;14.50;77.20;;;;;;5011419;28;20491;-63
2023/05/21 01:45:30;;;;;;;1.40;0.85;;;14.60;77.10;;;;;;5011409;28;20437;-63
2023/05/21 01:47:56;;;;;;;0.00;0.00;;;14.50;77.30;;;;;;5011822;28;20092;-62
2023/05/21 01:50:25;;;;;;;0.00;0.00;;;14.50;77.40;;;;;;5011544;28;20065;-63
2023/05/21 01:52:53;;;;;;;0.05;0.05;;;14.50;77.60;;;;;;5012243;28;20092;-63
2023/05/21 01:55:23;;;;;;;0.00;0.00;;;14.50;77.70;;;;;;4994283;28;20522;-63
2023/05/21 01:57:51;;;;;;;0.10;0.10;;;14.50;77.50;;;;;;5010125;28;20076;-62
2023/05/21 02:00:18;;;;;;;0.00;0.00;;;14.50;77.50;;;;;;5011185;28;20049;-63
2023/05/21 02:02:43;;;;;;;0.00;0.00;;;14.50;77.60;;;;;;4993951;28;20571;-62
2023/05/21 02:05:09;;;;;;;0.00;0.00;;;14.50;77.40;;;;;;5011195;28;20046;-63
2023/05/21 02:07:36;;;;;;;0.00;0.00;;;14.50;77.50;;;;;;5010856;28;20084;-63
2023/05/21 02:10:02;;;;;;;0.15;0.15;;;14.50;77.50;;;;;;5011139;28;20499;-62
2023/05/21 02:12:28;;;;;;;0.00;0.00;;;14.50;77.60;;;;;;5010917;28;20050;-62
2023/05/21 02:14:55;;;;;;;0.00;0.00;;;14.50;77.60;;;;;;5011119;28;20049;-63
2023/05/21 02:17:21;;;;;;;12.82;1.98;;;14.50;77.50;;;;;;5011485;28;20096;-63
2023/05/21 02:19:47;;;;;;;0.10;0.10;;;14.50;77.60;;;;;;5010927;28;20450;-63
2023/05/21 02:22:12;;;;;;;0.00;0.00;;;14.40;77.60;;;;;;5010879;28;20050;-63
2023/05/21 02:24:38;;;;;;;0.00;0.00;;;14.50;77.60;;;;;;5009939;28;20049;-63
2023/05/21 02:27:05;;;;;;;0.00;0.00;;;14.40;77.70;;;;;;4993128;28;20050;-63
2023/05/21 02:29:31;;;;;;;0.00;0.00;;;14.40;77.80;;;;;;5010703;28;20120;-64
2023/05/21 02:31:56;;;;;;;0.00;0.00;;;14.40;77.80;;;;;;5010681;28;20509;-63
2023/05/21 02:34:23;;;;;;;0.10;0.10;;;14.40;77.90;;;;;;5010760;28;20042;-63
2023/05/21 02:36:52;;;;;;;0.00;0.00;;;14.40;78.00;;;;;;5010416;28;20048;-62
2023/05/21 02:39:18;;;;;;;0.00;0.00;;;14.40;78.00;;;;;;5009427;28;20046;-62
2023/05/21 02:41:45;;;;;;;0.10;0.10;;;14.40;78.00;;;;;;5010645;28;20556;-63
2023/05/21 02:44:11;;;;;;;0.08;0.08;;;14.40;78.00;;;;;;5010669;28;20045;-63
2023/05/21 02:46:36;;;;;;;0.00;0.00;;;14.40;78.10;;;;;;5010383;28;20518;-62
2023/05/21 02:49:02;;;;;;;0.00;0.00;;;14.50;78.00;;;;;;5010458;28;20112;-63
2023/05/21 02:51:27;;;;;;;0.00;0.00;;;14.40;78.10;;;;;;5008960;28;20058;-63
2023/05/21 02:53:53;;;;;;;0.00;0.00;;;14.40;78.10;;;;;;5010639;28;20042;-63
2023/05/21 02:56:18;;;;;;;0.00;0.00;;;14.40;78.10;;;;;;5010709;28;20041;-63
2023/05/21 02:58:44;;;;;;;0.10;0.10;;;14.50;78.10;;;;;;5010181;28;20561;-62
2023/05/21 03:01:10;;;;;;;0.03;0.03;;;14.40;78.20;;;;;;5010150;28;20548;-63
2023/05/21 03:03:35;;;;;;;0.00;0.00;;;14.40;78.20;;;;;;5010302;28;20125;-63
2023/05/21 03:06:01;;;;;;;0.00;0.00;;;14.50;78.20;;;;;;5010472;28;20042;-63
2023/05/21 03:08:27;;;;;;;0.17;0.17;;;14.40;78.30;;;;;;5009700;28;20038;-63
2023/05/21 03:10:52;;;;;;;0.00;0.00;;;14.50;78.50;;;;;;5010988;28;20074;-62
2023/05/21 03:13:18;;;;;;;0.40;0.40;;;14.40;78.50;;;;;;5011252;28;20131;-63
2023/05/21 03:15:45;;;;;;;0.10;0.10;;;14.50;78.70;;;;;;5011222;28;20622;-63
2023/05/21 03:18:11;;;;;;;0.00;0.00;;;14.40;78.80;;;;;;5011316;28;20046;-63
2023/05/21 03:20:42;;;;;;;0.00;0.00;;;14.40;78.90;;;;;;5009591;28;20042;-63
2023/05/21 03:23:08;;;;;;;0.10;0.10;;;14.30;79.20;;;;;;5010936;28;20054;-63
2023/05/21 03:25:35;;;;;;;1.23;1.20;;;14.30;79.30;;;;;;5011088;28;20137;-64
2023/05/21 03:28:01;;;;;;;0.32;0.32;;;14.40;79.40;;;;;;5011284;28;20104;-62
2023/05/21 03:30:26;;;;;;;0.00;0.00;;;14.30;79.50;;;;;;5010408;28;20491;-63
2023/05/21 03:32:52;;;;;;;0.45;0.45;;;14.30;79.60;;;;;;5009643;28;20130;-62
2023/05/21 03:35:18;;;;;;;0.00;0.00;;;14.30;79.70;;;;;;5009764;28;20483;-64
2023/05/21 03:37:43;;;;;;;0.00;0.00;;;14.20;79.70;;;;;;5010970;28;20046;-63
2023/05/21 03:40:09;;;;;;;0.00;0.00;;;14.30;79.80;;;;;;5009546;28;20037;-63
2023/05/21 03:42:35;;;;;;;3.72;0.80;;;14.20;79.80;;;;;;5008751;28;20041;-63
2023/05/21 03:45:02;;;;;;;0.10;0.10;;;14.20;79.90;;;;;;5009282;28;20046;-63
2023/05/21 03:47:27;;;;;;;0.00;0.00;;;14.20;80.20;;;;;;5009553;28;20038;-63
2023/05/21 03:49:53;;;;;;;0.00;0.00;;;14.20;80.30;;;;;;5008110;28;20507;-63
2023/05/21 03:52:18;;;;;;;0.00;0.00;;;14.10;80.40;;;;;;5009600;28;20042;-64
2023/05/21 03:54:44;;;;;;;0.00;0.00;;;14.20;80.50;;;;;;5008340;28;20502;-63
2023/05/21 03:57:10;;;;;;;0.30;0.30;;;14.10;80.60;;;;;;5009203;28;20050;-62
2023/05/21 03:59:35;;;;;;;0.10;0.10;;;14.10;80.70;;;;;;5009488;28;20076;-63
2023/05/21 04:02:01;;;;;;;0.10;0.10;;;14.10;80.80;;;;;;5009428;28;20053;-64
2023/05/21 04:04:28;;;;;;;0.60;0.60;;;14.10;80.90;;;;;;5009344;28;20081;-63
2023/05/21 04:06:54;;;;;;;0.10;0.10;;;14.10;81.00;;;;;;5008376;28;20453;-64
2023/05/21 04:09:20;;;;;;;0.00;0.00;;;14.10;81.10;;;;;;5009042;28;20042;-63
2023/05/21 04:11:46;;;;;;;0.10;0.10;;;14.10;81.20;;;;;;5009172;28;20092;-62
2023/05/21 04:14:12;;;;;;;0.00;0.00;;;14.10;81.30;;;;;;5009493;28;20099;-63
2023/05/21 04:16:38;;;;;;;0.00;0.00;;;14.00;81.30;;;;;;5010141;28;20487;-63
2023/05/21 04:19:05;;;;;;;0.00;0.00;;;14.00;81.30;;;;;;5009463;28;20046;-62
2023/05/21 04:21:31;;;;;;;0.00;0.00;;;14.00;81.50;;;;;;5011926;28;20042;-64
2023/05/21 04:23:59;;;;;;;0.00;0.00;;;13.90;81.40;;;;;;5013297;28;20046;-63
2023/05/21 04:26:25;;;;;;;0.00;0.00;;;13.90;81.40;;;;;;5011846;28;20128;-62
2023/05/21 04:28:52;;;;;;;0.00;0.00;;;13.90;81.50;;;;;;5013127;28;20151;-62
2023/05/21 04:31:18;;;;;;;0.00;0.00;;;13.90;81.60;;;;;;5012926;28;20129;-63
2023/05/21 04:33:44;;;;;;;0.00;0.00;;;13.90;81.70;;;;;;5012622;28;20128;-62
2023/05/21 04:36:10;;;;;;;0.00;0.00;;;13.80;81.90;;;;;;5012952;28;20049;-62
2023/05/21 04:38:37;;;;;;;0.00;0.00;;;13.80;81.90;;;;;;5012870;28;20410;-63
2023/05/21 04:41:03;;;;;;;0.00;0.00;;;13.80;82.00;;;;;;5012911;28;20046;-63
2023/05/21 04:43:29;;;;;;;0.10;0.10;;;13.70;82.20;;;;;;5012310;28;20038;-63
2023/05/21 04:45:54;;;;;;;0.00;0.00;;;13.70;82.20;;;;;;5013050;28;20054;-63
2023/05/21 04:48:23;;;;;;;0.00;0.00;;;13.80;82.20;;;;;;5011477;28;20044;-63
2023/05/21 04:50:49;;;;;;;0.50;0.30;;;13.70;82.20;;;;;;5012888;28;20050;-62
2023/05/21 04:53:15;;;;;;;0.17;0.17;;;13.80;82.50;;;;;;5012571;28;20395;-63
2023/05/21 04:55:41;;;;;;;0.00;0.00;;;13.80;82.40;;;;;;5012809;28;20495;-63
2023/05/21 04:58:07;;;;;;;0.00;0.00;;;13.80;82.50;;;;;;5012391;28;20049;-63
2023/05/21 05:00:37;;;;;;;0.00;0.00;;;13.80;82.60;;;;;;5012427;28;20042;-63
2023/05/21 05:03:03;;;;;;;0.00;0.00;;;13.80;82.70;;;;;;5012218;28;20041;-63
2023/05/21 05:05:28;;;;;;;0.85;0.68;;;13.80;82.70;;;;;;5011083;28;20411;-63
2023/05/21 05:07:55;;;;;;;0.10;0.10;;;13.90;82.70;;;;;;5012352;28;20046;-63
2023/05/21 05:10:20;;;;;;;0.40;0.40;;;13.90;82.80;;;;;;5011014;28;20605;-63
2023/05/21 05:12:47;;;;;;;2.08;1.48;;;13.90;82.80;;;;;;5013018;28;20145;-63
2023/05/21 05:15:12;;;;;;;0.00;0.00;;;13.90;82.70;;;;;;5011873;28;20076;-63
2023/05/21 05:17:38;;;;;;;0.13;0.13;;;13.90;82.80;;;;;;5012286;28;20454;-63
2023/05/21 05:20:08;;;;;;;0.00;0.00;;;13.90;82.70;;;;;;5012311;28;20045;-63
2023/05/21 05:22:34;;;;;;;0.00;0.00;;;14.00;82.60;;;;;;5012201;28;20056;-63
2023/05/21 05:25:00;;;;;;;0.00;0.00;;;14.00;82.60;;;;;;5011961;28;20037;-63
2023/05/21 05:27:25;;;;;;;0.00;0.00;;;14.00;82.70;;;;;;5012012;28;20041;-62
2023/05/21 05:29:51;;;;;;;0.00;0.00;;;14.00;82.80;;;;;;5011743;28;20042;-63
2023/05/21 05:32:16;;;;;;;0.00;0.00;;;14.00;82.80;;;;;;5011675;28;20402;-63
2023/05/21 05:34:44;;;;;;;0.13;0.13;;;14.00;82.70;;;;;;5010956;28;20046;-63
2023/05/21 05:37:10;;;;;;;0.10;0.10;;;14.00;82.70;;;;;;5011711;28;20080;-63
2023/05/21 05:39:35;;;;;;;0.00;0.00;;;14.10;82.80;;;;;;5011283;28;20152;-63
2023/05/21 05:42:02;;;;;;;0.03;0.03;;;14.10;82.70;;;;;;5011847;28;20042;-63
2023/05/21 05:44:27;;;;;;;0.25;0.25;;;14.10;82.80;;;;;;5011389;28;20561;-64
2023/05/21 05:46:53;;;;;;;0.00;0.00;;;14.10;82.60;;;;;;5011932;28;20045;-63
2023/05/21 05:49:18;;;;;;;0.10;0.10;;;14.10;82.60;;;;;;5011378;28;20081;-63
2023/05/21 05:51:44;;;;;;;0.00;0.00;;;14.10;82.50;;;;;;5011433;28;20049;-63
2023/05/21 05:54:09;;;;;;;0.00;0.00;;;14.10;82.50;;;;;;5011055;28;20046;-63
2023/05/21 05:56:35;;;;;;;0.10;0.10;;;14.10;82.40;;;;;;5011334;28;20096;-63
2023/05/21 05:59:01;;;;;;;2.40;1.73;;;14.20;82.40;;;;;;5011547;28;20049;-63
2023/05/21 06:01:26;;;;;;;0.00;0.00;;;14.20;82.10;;;;;;5011257;28;20064;-63
2023/05/21 06:03:52;;;;;;;0.00;0.00;;;14.20;82.00;;;;;;5011261;28;20109;-62
2023/05/21 06:06:18;;;;;;;0.08;0.08;;;14.20;81.90;;;;;;5011368;28;20078;-63
2023/05/21 06:08:43;;;;;;;1.60;1.35;;;14.20;81.70;;;;;;5009857;28;20046;-62
2023/05/21 06:11:10;;;;;;;0.57;0.57;;;14.20;81.60;;;;;;5011134;28;20132;-62
2023/05/21 06:13:36;;;;;;;0.00;0.00;;;14.20;81.60;;;;;;5011070;28;20064;-63
2023/05/21 06:16:02;;;;;;;0.00;0.00;;;14.20;81.60;;;;;;5010848;28;20487;-62
2023/05/21 06:18:27;;;;;;;0.75;0.65;;;14.30;81.60;;;;;;5010797;28;20052;-63
2023/05/21 06:20:53;;;;;;;0.00;0.00;;;14.30;81.30;;;;;;5009858;28;20038;-62
2023/05/21 06:23:18;;;;;;;0.00;0.00;;;14.30;81.30;;;;;;5011187;28;20042;-64
2023/05/21 06:25:44;;;;;;;0.00;0.00;;;14.40;81.20;;;;;;5010489;28;20076;-62
2023/05/21 06:28:10;;;;;;;0.00;0.00;;;14.40;81.10;;;;;;5010895;28;20042;-63
2023/05/21 06:30:35;;;;;;;0.08;0.08;;;14.40;81.00;;;;;;5010720;28;20053;-63
2023/05/21 06:33:01;;;;;;;0.00;0.00;;;14.40;81.00;;;;;;5010017;28;20049;-63
2023/05/21 06:35:27;;;;;;;0.00;0.00;;;14.50;80.90;;;;;;5010763;28;20091;-62
2023/05/21 06:37:52;;;;;;;0.00;0.00;;;14.50;80.90;;;;;;5010539;28;20038;-62
2023/05/21 06:40:18;;;;;;;0.00;0.00;;;14.60;80.70;;;;;;5009272;28;20449;-62
2023/05/21 06:42:43;;;;;;;0.00;0.00;;;14.60;80.40;;;;;;5008779;28;20068;-63
2023/05/21 06:45:09;;;;;;;0.00;0.00;;;14.70;80.30;;;;;;5010324;28;20053;-62
2023/05/21 06:47:35;;;;;;;1.05;0.75;;;14.70;80.30;;;;;;5010598;28;20042;-62
2023/05/21 06:50:00;;;;;;;0.00;0.00;;;14.80;80.20;;;;;;4992980;28;20058;-62
2023/05/21 06:52:26;;;;;;;0.03;0.03;;;14.90;80.00;;;;;;5010014;28;20115;-62
2023/05/21 06:54:51;;;;;;;0.22;0.22;;;15.10;79.80;;;;;;5010374;28;20038;-63
2023/05/21 06:57:17;;;;;;;0.00;0.00;;;15.10;79.60;;;;;;5010525;28;20842;-63
2023/05/21 06:59:43;;;;;;;0.47;0.43;;;15.20;79.30;;;;;;5011399;28;20050;-62
2023/05/21 07:02:08;;;;;;;0.60;0.43;;;15.30;79.10;;;;;;5014181;28;20050;-62
2023/05/21 07:04:34;;;;;;;0.00;0.00;;;15.40;78.40;;;;;;5014582;28;20509;-62
2023/05/21 07:07:03;;;;;;;0.10;0.10;;;15.50;78.20;;;;;;5010993;28;20052;-62
2023/05/21 07:09:29;;;;;;;0.00;0.00;;;15.50;78.00;;;;;;5010240;28;20132;-62
2023/05/21 07:11:54;;;;;;;0.00;0.00;;;15.60;77.60;;;;;;5010145;28;20093;-62
2023/05/21 07:14:20;;;;;;;0.00;0.00;;;15.50;77.40;;;;;;5009993;28;20491;-62
2023/05/21 07:16:45;;;;;;;0.00;0.00;;;15.60;77.60;;;;;;5010156;28;20045;-62
2023/05/21 07:19:11;;;;;;;0.00;0.00;;;15.60;77.20;;;;;;5009758;28;20502;-62
2023/05/21 07:21:36;;;;;;;0.17;0.17;;;15.60;77.30;;;;;;5010189;28;20054;-62
2023/05/21 07:24:02;;;;;;;0.00;0.00;;;15.70;77.50;;;;;;5010060;28;20622;-62
2023/05/21 07:26:28;;;;;;;0.10;0.10;;;15.80;77.30;;;;;;5009873;28;20871;-63
2023/05/21 07:28:53;;;;;;;0.20;0.20;;;15.90;77.10;;;;;;4992270;28;20049;-62
2023/05/21 07:31:19;;;;;;;0.22;0.22;;;16.00;76.80;;;;;;5009706;28;20038;-63
2023/05/21 07:33:44;;;;;;;0.10;0.10;;;15.90;76.60;;;;;;5010113;28;20042;-62
2023/05/21 07:36:10;;;;;;;0.00;0.00;;;16.00;76.50;;;;;;5009691;28;20050;-62
2023/05/21 07:38:36;;;;;;;0.00;0.00;;;16.00;76.50;;;;;;5009779;28;20046;-62
2023/05/21 07:41:02;;;;;;;0.00;0.00;;;16.00;76.60;;;;;;5009606;28;20049;-62
2023/05/21 07:43:28;;;;;;;0.45;0.45;;;16.00;76.90;;;;;;5010319;28;20045;-62
2023/05/21 07:45:53;;;;;;;0.00;0.00;;;16.00;76.90;;;;;;5010795;28;20053;-62
2023/05/21 07:48:19;;;;;;;1.05;1.02;;;16.00;76.90;;;;;;5009484;28;20041;-62
2023/05/21 07:50:48;;;;;;;0.10;0.10;;;16.00;76.90;;;;;;5009506;28;20455;-62
2023/05/21 07:53:13;;;;;;;0.00;0.00;;;16.10;76.60;;;;;;5009569;28;20061;-62
2023/05/21 07:55:46;;;;;;;0.05;0.05;;;16.00;76.40;;;;;;5013323;28;20049;-62
2023/05/21 07:58:18;;;;;;;0.28;0.28;;;16.00;76.20;;;;;;5013464;28;20046;-62
2023/05/21 08:00:46;;;;;;;0.03;0.03;;;16.00;76.10;;;;;;5013645;28;20053;-62
2023/05/21 08:03:16;;;;;;;1.65;1.00;;;16.00;76.30;;;;;;5013596;28;20056;-62
2023/05/21 08:05:47;;;;;;;0.00;0.00;;;16.10;76.50;;;;;;5013206;28;20037;-62
2023/05/21 08:08:15;;;;;;;0.10;0.10;;;16.10;76.40;;;;;;5012425;28;20859;-62
2023/05/21 08:10:40;;;;;;;0.00;0.00;;;16.10;76.10;;;;;;5013364;28;20045;-62
2023/05/21 08:13:06;;;;;;;0.30;0.30;;;16.10;76.10;;;;;;5013376;28;20444;-62
2023/05/21 08:15:31;;;;;;;2.20;1.65;;;16.10;76.20;;;;;;5013120;28;20061;-62
2023/05/21 08:17:57;;;;;;;0.00;0.00;;;16.20;76.40;;;;;;5012891;28;20046;-62
2023/05/21 08:20:23;;;;;;;0.00;0.00;;;16.20;76.10;;;;;;5013278;28;20049;-62
2023/05/21 08:22:49;;;;;;;0.00;0.00;;;16.20;75.60;;;;;;5013117;28;20042;-62
2023/05/21 08:25:15;;;;;;;0.00;0.00;;;16.20;75.60;;;;;;5013150;28;20045;-62
2023/05/21 08:27:41;;;;;;;0.10;0.10;;;16.10;75.80;;;;;;5012623;28;20049;-62
2023/05/21 08:30:10;;;;;;;0.00;0.00;;;16.20;75.70;;;;;;5012973;28;20046;-62
2023/05/21 08:32:35;;;;;;;0.00;0.00;;;16.10;75.90;;;;;;5012819;28;20046;-62
2023/05/21 08:35:01;;;;;;;0.00;0.00;;;16.10;76.10;;;;;;5012894;28;20045;-62
2023/05/21 08:37:27;;;;;;;0.00;0.00;;;16.10;76.00;;;;;;5012687;28;20046;-62
2023/05/21 08:39:52;;;;;;;0.43;0.43;;;16.10;75.90;;;;;;5012900;28;20128;-62
2023/05/21 08:42:41;;;;;;;0.43;0.43;;;16.20;75.80;;;;;;5012933;28;20050;-62
2023/05/21 08:45:07;;;;;;;0.00;0.00;;;16.10;75.80;;;;;;5012768;28;20042;-62
2023/05/21 08:47:36;;;;;;;0.00;0.00;;;16.10;75.60;;;;;;5012706;28;20136;-62
2023/05/21 08:50:10;;;;;;;0.00;0.00;;;16.20;75.40;;;;;;5012344;28;20150;-62
2023/05/21 08:52:35;;;;;;;0.10;0.10;;;16.10;75.30;;;;;;5012702;28;20092;-62
2023/05/21 08:55:03;;;;;;;0.00;0.00;;;16.20;74.90;;;;;;5012626;28;20070;-63
2023/05/21 08:57:30;;;;;;;0.00;0.00;;;16.20;74.50;;;;;;5012062;28;20100;-62
2023/05/21 08:59:56;;;;;;;0.15;0.15;;;16.20;74.60;;;;;;5012676;28;20073;-62
2023/05/21 09:02:23;;;;;;;0.63;0.63;;;16.20;74.90;;;;;;5012299;28;20081;-62
2023/05/21 09:04:55;;;;;;;0.00;0.00;;;16.30;74.50;;;;;;5012420;28;20093;-62
2023/05/21 09:07:28;;;;;;;0.00;0.00;;;16.30;74.30;;;;;;5011256;28;20042;-63
2023/05/21 09:10:02;;;;;;;0.00;0.00;;;16.30;74.60;;;;;;5012320;28;20068;-62
2023/05/21 09:12:28;;;;;;;0.00;0.00;;;16.30;74.60;;;;;;5010936;28;20513;-62
2023/05/21 09:14:57;;;;;;;0.00;0.00;;;16.40;74.70;;;;;;5012256;28;20046;-62
2023/05/21 09:17:23;;;;;;;0.00;0.00;;;16.40;74.60;;;;;;5011878;28;20116;-63
2023/05/21 09:20:13;;;;;;;0.00;0.00;;;16.40;74.60;;;;;;5012365;28;20153;-62
2023/05/21 09:22:46;;;;;;;0.00;0.00;;;16.50;74.80;;;;;;5012258;28;20070;-63
2023/05/21 09:25:19;;;;;;;0.00;0.00;;;16.60;74.50;;;;;;5012082;28;20125;-64
2023/05/21 09:27:45;;;;;;;0.00;0.00;;;16.80;73.90;;;;;;5012465;28;20084;-63
2023/05/21 09:30:13;;;;;;;0.28;0.28;;;16.90;73.60;;;;;;5011516;28;20498;-64
2023/05/21 09:32:40;;;;;;;0.00;0.00;;;17.00;73.50;;;;;;5011790;28;20125;-63
2023/05/21 09:35:13;;;;;;;0.00;0.00;;;17.00;73.20;;;;;;5012125;28;20040;-63
2023/05/21 09:37:39;;;;;;;1.98;0.90;;;17.10;72.90;;;;;;5011663;28;20046;-62
2023/05/21 09:40:11;;;;;;;0.20;0.20;;;17.10;72.70;;;;;;5011552;28;20546;-63
2023/05/21 09:42:39;;;;;;;0.05;0.05;;;17.10;72.40;;;;;;5011799;28;20053;-63
2023/05/21 09:45:06;;;;;;;3.50;1.85;;;17.10;72.50;;;;;;4994303;28;20049;-63
2023/05/21 09:47:32;;;;;;;0.10;0.10;;;17.20;71.90;;;;;;5011495;28;20041;-63
2023/05/21 09:49:58;;;;;;;3.75;0.90;;;17.20;71.00;;;;;;5011181;28;20454;-63
2023/05/21 09:52:27;;;;;;;0.10;0.10;;;17.10;71.30;;;;;;5011556;28;20046;-63
2023/05/21 09:54:52;;;;;;;0.00;0.00;;;17.10;71.20;;;;;;5011468;28;20053;-63
2023/05/21 09:57:28;;;;;;;0.03;0.03;;;17.10;71.40;;;;;;5011537;28;20050;-63
2023/05/21 09:59:54;;;;;;;0.00;0.00;;;17.10;71.60;;;;;;5010236;28;20049;-63
2023/05/21 10:02:21;;;;;;;0.00;0.00;;;17.20;71.70;;;;;;5010152;28;20053;-63
2023/05/21 10:04:49;;;;;;;0.47;0.25;;;17.30;71.30;;;;;;5010834;28;20048;-63
2023/05/21 10:07:18;;;;;;;0.00;0.00;;;17.40;70.70;;;;;;5011372;28;20074;-63
2023/05/21 10:09:47;;;;;;;0.85;0.85;;;17.40;70.50;;;;;;5011127;28;20487;-63
2023/05/21 10:12:16;;;;;;;0.00;0.00;;;17.40;70.30;;;;;;5011147;28;20088;-63
2023/05/21 10:14:45;;;;;;;0.03;0.03;;;17.40;70.50;;;;;;5008749;28;20521;-63
2023/05/21 10:17:12;;;;;;;0.20;0.20;;;17.50;70.40;;;;;;5010365;28;20093;-63
2023/05/21 10:19:38;;;;;;;0.22;0.22;;;17.60;69.30;;;;;;5010885;28;20046;-63
2023/05/21 10:22:04;;;;;;;0.50;0.50;;;17.60;69.20;;;;;;5011247;28;20038;-63
2023/05/21 10:24:32;;;;;;;0.08;0.08;;;17.60;69.20;;;;;;5010430;28;20502;-63
2023/05/21 10:26:58;;;;;;;0.03;0.03;;;17.60;69.30;;;;;;5011167;28;20042;-63
2023/05/21 10:29:25;;;;;;;0.00;0.00;;;17.70;69.50;;;;;;5011093;28;20088;-63
2023/05/21 10:31:51;;;;;;;0.73;0.57;;;17.80;69.10;;;;;;5011079;28;20057;-63
2023/05/21 10:34:18;;;;;;;0.13;0.13;;;17.80;69.20;;;;;;5011110;28;21014;-63
2023/05/21 10:36:47;;;;;;;0.05;0.05;;;17.90;68.50;;;;;;5010758;28;20049;-63
2023/05/21 10:39:15;;;;;;;0.00;0.00;;;17.90;68.20;;;;;;5008996;28;20046;-63
2023/05/21 10:41:52;;;;;;;0.52;0.52;;;17.90;68.30;;;;;;5009270;28;20498;-63
2023/05/21 10:44:36;;;;;;;0.22;0.22;;;17.90;68.20;;;;;;5010732;28;20132;-63
2023/05/21 10:47:28;;;;;;;0.00;0.00;;;17.80;68.40;;;;;;5010723;28;20046;-63
2023/05/21 10:50:20;;;;;;;0.08;0.08;;;18.00;68.50;;;;;;5010175;28;20054;-64
2023/05/21 10:53:15;;;;;;;0.00;0.00;;;18.10;67.70;;;;;;5010296;28;20129;-63
2023/05/21 10:55:57;;;;;;;0.10;0.10;;;18.10;67.40;;;;;;5010441;28;20068;-63
2023/05/21 10:58:53;;;;;;;0.10;0.10;;;18.10;67.70;;;;;;5010731;28;20053;-63
2023/05/21 11:01:19;;;;;;;0.08;0.08;;;18.10;67.80;;;;;;5010287;28;20085;-63
2023/05/21 11:03:49;;;;;;;0.00;0.00;;;18.20;67.90;;;;;;5009897;28;20495;-64
2023/05/21 11:06:25;;;;;;;0.00;0.00;;;18.30;67.80;;;;;;5008721;28;20049;-63
2023/05/21 11:08:52;;;;;;;0.00;0.00;;;18.20;67.80;;;;;;5010359;28;20046;-63
2023/05/21 11:11:53;;;;;;;0.00;0.00;;;18.30;67.90;;;;;;5009816;28;20064;-63
2023/05/21 11:14:33;;;;;;;0.10;0.10;;;18.30;68.10;;;;;;5010132;28;20049;-63
2023/05/21 11:17:11;;;;;;;0.00;0.00;;;18.30;68.30;;;;;;5010118;28;20130;-63
2023/05/21 11:19:41;;;;;;;0.00;0.00;;;18.40;68.10;;;;;;5009901;28;20049;-64
2023/05/21 11:22:20;;;;;;;0.10;0.10;;;18.40;68.10;;;;;;5010114;28;20637;-63
2023/05/21 11:24:46;;;;;;;0.00;0.00;;;18.50;67.70;;;;;;5009749;28;20046;-63
2023/05/21 11:27:11;;;;;;;0.00;0.00;;;18.50;67.70;;;;;;5009891;28;20133;-64
2023/05/21 11:29:44;;;;;;;0.00;0.00;;;18.40;67.60;;;;;;5008315;28;20050;-62
2023/05/21 11:32:14;;;;;;;0.15;0.15;;;18.40;67.40;;;;;;5009927;28;20064;-63
2023/05/21 11:34:46;;;;;;;0.10;0.10;;;18.40;67.70;;;;;;5009396;28;20495;-63
2023/05/21 11:37:26;;;;;;;0.40;0.38;;;18.40;67.90;;;;;;5009928;28;20046;-63
2023/05/21 11:39:52;;;;;;;0.00;0.00;;;18.50;68.10;;;;;;5009810;28;20499;-63
2023/05/21 11:42:41;;;;;;;0.32;0.30;;;18.50;67.60;;;;;;5009312;28;20046;-62
2023/05/21 11:45:07;;;;;;;0.10;0.10;;;18.50;67.70;;;;;;5009860;28;20107;-64
2023/05/21 11:47:33;;;;;;;0.10;0.10;;;18.60;67.30;;;;;;5008398;28;20054;-64
2023/05/21 11:50:01;;;;;;;0.63;0.20;;;18.60;67.40;;;;;;5009124;28;20514;-64
2023/05/21 11:52:31;;;;;;;1.02;0.20;;;18.70;66.60;;;;;;5009854;28;20049;-63
2023/05/21 11:54:58;;;;;;;0.05;0.05;;;18.60;66.80;;;;;;5009903;28;20136;-63
2023/05/21 11:57:29;;;;;;;0.00;0.00;;;18.60;67.20;;;;;;5009368;28;20472;-63
2023/05/21 11:59:57;;;;;;;0.00;0.00;;;18.60;67.70;;;;;;5009793;28;20042;-63
2023/05/21 12:02:25;;;;;;;0.00;0.00;;;18.80;67.20;;;;;;5009756;28;20046;-63
2023/05/21 12:04:51;;;;;;;0.10;0.10;;;18.80;66.70;;;;;;5009462;28;20048;-63
2023/05/21 12:07:18;;;;;;;0.00;0.00;;;18.90;66.10;;;;;;5009552;28;20042;-63
2023/05/21 12:09:48;;;;;;;0.32;0.32;;;18.80;66.60;;;;;;5008332;28;20042;-62
2023/05/21 12:12:20;;;;;;;1.90;1.13;;;18.90;67.10;;;;;;5008973;28;20097;-64
2023/05/21 12:14:47;;;;;;;0.00;0.00;;;19.10;66.80;;;;;;5009609;28;20053;-63
2023/05/21 12:17:18;;;;;;;0.00;0.00;;;19.10;66.30;;;;;;5009290;28;20042;-64
2023/05/21 12:19:45;;;;;;;0.03;0.03;;;19.10;65.60;;;;;;5008837;28;20050;-63
2023/05/21 12:22:11;;;;;;;13.10;2.60;;;19.20;65.60;;;;;;5009681;28;20387;-63
2023/05/21 12:24:38;;;;;;;2.35;0.35;;;19.20;65.10;;;;;;5009230;28;20034;-63
2023/05/21 12:27:09;;;;;;;0.00;0.00;;;19.10;65.50;;;;;;5009406;28;20042;-63
2023/05/21 12:29:37;;;;;;;0.00;0.00;;;19.20;65.70;;;;;;5008868;28;20085;-63
2023/05/21 12:32:05;;;;;;;0.00;0.00;;;19.30;66.00;;;;;;4998122;28;20471;-63
2023/05/21 12:34:45;;;;;;;0.00;0.00;;;19.30;66.10;;;;;;4988269;28;20058;-64
2023/05/21 12:37:14;;;;;;;0.00;0.00;;;19.50;65.90;;;;;;4988852;28;20046;-63
2023/05/21 12:39:44;;;;;;;0.38;0.38;;;19.60;65.60;;;;;;4989064;28;20038;-63
2023/05/21 12:42:11;;;;;;;0.08;0.08;;;19.60;65.40;;;;;;4991160;28;20042;-64
2023/05/21 12:44:44;;;;;;;0.63;0.63;;;19.60;65.20;;;;;;4993168;28;20048;-63
2023/05/21 12:47:10;;;;;;;1.00;0.60;;;19.60;65.20;;;;;;4993466;28;20049;-63
2023/05/21 12:49:43;;;;;;;0.03;0.03;;;19.70;64.70;;;;;;4992978;28;20058;-64
2023/05/21 12:52:10;;;;;;;0.00;0.00;;;19.80;64.70;;;;;;4992951;28;20057;-63